createdAt,value
2022-10-13T00:01:12.053Z,102329.56
2022-10-13T00:03:40.297Z,102325.50
2022-10-13T00:06:08.533Z,102329.94
2022-10-13T00:08:36.368Z,102337.69
2022-10-13T00:11:09.323Z,102320.84
2022-10-13T00:13:36.712Z,102329.56
2022-10-13T00:16:04.499Z,102330.75
2022-10-13T00:18:32.258Z,102329.00
2022-10-13T00:20:59.486Z,102328.31
2022-10-13T00:23:26.813Z,102335.00
2022-10-13T00:25:53.983Z,102322.78
2022-10-13T00:28:21.354Z,102326.66
2022-10-13T00:30:48.827Z,102333.03
2022-10-13T00:33:16.212Z,102325.88
2022-10-13T00:35:44.763Z,102329.78
2022-10-13T00:38:15.982Z,102328.41
2022-10-13T00:40:44.296Z,102331.69
2022-10-13T00:43:16.347Z,102334.59
2022-10-13T00:45:44.073Z,102326.47
2022-10-13T00:48:11.551Z,102329.19
2022-10-13T00:50:41.215Z,102329.72
2022-10-13T00:53:10.767Z,102336.72
2022-10-13T00:55:38.940Z,102322.78
2022-10-13T00:58:07.481Z,102328.22
2022-10-13T01:00:35.162Z,102325.50
2022-10-13T01:03:02.990Z,102320.06
2022-10-13T01:05:30.900Z,102314.88
2022-10-13T01:07:59.587Z,102322.00
2022-10-13T01:10:36.282Z,102322.59
2022-10-13T01:13:07.101Z,102319.09
2022-10-13T01:15:39.725Z,102318.69
2022-10-13T01:18:16.194Z,102318.13
2022-10-13T01:21:01.692Z,102315.00
2022-10-13T01:23:29.433Z,102319.03
2022-10-13T01:26:18.334Z,102313.28
2022-10-13T01:28:50.879Z,102315.34
2022-10-13T01:31:24.491Z,102321.63
2022-10-13T01:34:21.059Z,102320.63
2022-10-13T01:36:56.792Z,102315.41
2022-10-13T01:39:33.956Z,102322.97
2022-10-13T01:42:11.349Z,102314.53
2022-10-13T01:44:41.198Z,102313.47
2022-10-13T01:47:11.717Z,102307.28
2022-10-13T01:49:39.275Z,102311.84
2022-10-13T01:52:08.351Z,102317.75
2022-10-13T01:54:35.603Z,102307.06
2022-10-13T01:57:02.802Z,102300.47
2022-10-13T01:59:33.941Z,102301.50
2022-10-13T02:02:19.191Z,102302.44
2022-10-13T02:04:46.877Z,102305.16
2022-10-13T02:07:28.321Z,102303.78
2022-10-13T02:09:59.080Z,102300.31
2022-10-13T02:12:26.294Z,102306.50
2022-10-13T02:14:55.828Z,102307.19
2022-10-13T02:17:23.259Z,102311.75
2022-10-13T02:19:50.593Z,102300.34
2022-10-13T02:22:18.426Z,102309.22
2022-10-13T02:24:45.859Z,102318.03
2022-10-13T02:27:13.667Z,102317.53
2022-10-13T02:29:51.394Z,102314.47
2022-10-13T02:32:20.005Z,102318.69
2022-10-13T02:34:47.545Z,102323.38
2022-10-13T02:37:15.013Z,102324.03
2022-10-13T02:39:42.217Z,102326.66
2022-10-13T02:42:11.945Z,102325.69
2022-10-13T02:44:40.241Z,102328.03
2022-10-13T02:47:07.423Z,102325.13
2022-10-13T02:49:34.846Z,102313.69
2022-10-13T02:52:02.061Z,102311.53
2022-10-13T02:54:29.299Z,102310.19
2022-10-13T02:56:56.481Z,102310.38
2022-10-13T02:59:23.846Z,102313.09
2022-10-13T03:01:51.052Z,102310.56
2022-10-13T03:04:18.322Z,102305.34
2022-10-13T03:06:45.764Z,102304.94
2022-10-13T03:09:14.037Z,102308.25
2022-10-13T03:11:42.035Z,102309.59
2022-10-13T03:14:09.342Z,102305.78
2022-10-13T03:16:36.633Z,102304.38
2022-10-13T03:19:03.927Z,102302.84
2022-10-13T03:21:31.321Z,102303.78
2022-10-13T03:23:58.572Z,102305.34
2022-10-13T03:26:26.384Z,102302.03
2022-10-13T03:28:53.793Z,102304.38
2022-10-13T03:31:21.028Z,102301.69
2022-10-13T03:33:48.363Z,102291.59
2022-10-13T03:36:15.637Z,102300.59
2022-10-13T03:38:43.085Z,102297.44
2022-10-13T03:41:16.727Z,102292.97
2022-10-13T03:43:48.487Z,102289.47
2022-10-13T03:46:17.679Z,102285.78
2022-10-13T03:48:46.872Z,102285.19
2022-10-13T03:51:15.648Z,102282.50
2022-10-13T03:53:46.048Z,102285.19
2022-10-13T03:56:15.488Z,102284.25
2022-10-13T03:58:54.734Z,102279.41
2022-10-13T04:01:23.280Z,102277.47
2022-10-13T04:03:51.999Z,102274.34
2022-10-13T04:06:19.480Z,102282.47
2022-10-13T04:08:46.719Z,102274.63
2022-10-13T04:11:14.743Z,102275.72
2022-10-13T04:13:43.496Z,102270.28
2022-10-13T04:16:15.085Z,102271.25
2022-10-13T04:18:44.619Z,102276.09
2022-10-13T04:21:13.369Z,102273.78
2022-10-13T04:23:40.613Z,102271.25
2022-10-13T04:26:08.024Z,102281.31
2022-10-13T04:28:36.096Z,102276.09
2022-10-13T04:31:03.520Z,102268.06
2022-10-13T04:33:31.211Z,102283.25
2022-10-13T04:35:58.553Z,102279.97
2022-10-13T04:38:25.738Z,102285.00
2022-10-13T04:40:52.949Z,102285.59
2022-10-13T04:43:20.346Z,102280.34
2022-10-13T04:45:48.718Z,102278.56
2022-10-13T04:48:16.217Z,102275.28
2022-10-13T04:50:43.972Z,102280.09
2022-10-13T04:53:14.252Z,102277.16
2022-10-13T04:55:45.666Z,102280.75
2022-10-13T04:58:12.869Z,102275.09
2022-10-13T05:00:40.203Z,102278.22
2022-10-13T05:03:07.942Z,102282.63
2022-10-13T05:05:35.343Z,102279.34
2022-10-13T05:08:02.524Z,102271.59
2022-10-13T05:10:34.546Z,102277.69
2022-10-13T05:13:01.991Z,102283.25
2022-10-13T05:15:29.407Z,102275.50
2022-10-13T05:17:56.711Z,102279.56
2022-10-13T05:20:23.879Z,102284.81
2022-10-13T05:22:51.121Z,102268.09
2022-10-13T05:25:18.777Z,102273.16
2022-10-13T05:27:46.432Z,102272.41
2022-10-13T05:30:13.791Z,102268.22
2022-10-13T05:32:41.018Z,102277.63
2022-10-13T05:35:09.257Z,102274.97
2022-10-13T05:37:40.774Z,102281.91
2022-10-13T05:40:08.304Z,102277.03
2022-10-13T05:42:35.615Z,102289.09
2022-10-13T05:45:03.641Z,102285.53
2022-10-13T05:47:30.934Z,102277.91
2022-10-13T05:49:58.152Z,102283.84
2022-10-13T05:52:26.006Z,102280.16
2022-10-13T05:54:55.276Z,102291.19
2022-10-13T05:57:24.279Z,102284.03
2022-10-13T05:59:54.226Z,102279.78
2022-10-13T06:02:23.594Z,102277.22
2022-10-13T06:04:51.873Z,102282.44
2022-10-13T06:07:19.437Z,102281.72
2022-10-13T06:09:46.919Z,102283.66
2022-10-13T06:12:14.526Z,102292.78
2022-10-13T06:14:41.765Z,102298.84
2022-10-13T06:17:11.972Z,102286.19
2022-10-13T06:19:45.569Z,102288.91
2022-10-13T06:22:12.854Z,102290.22
2022-10-13T06:24:40.089Z,102295.06
2022-10-13T06:27:09.995Z,102285.78
2022-10-13T06:29:37.352Z,102286.16
2022-10-13T06:32:04.748Z,102286.34
2022-10-13T06:34:32.752Z,102281.31
2022-10-13T06:37:00.047Z,102284.41
2022-10-13T06:39:27.311Z,102284.34
2022-10-13T06:41:55.447Z,102282.09
2022-10-13T06:44:30.593Z,102282.47
2022-10-13T06:47:03.312Z,102286.53
2022-10-13T06:49:30.512Z,102287.91
2022-10-13T06:51:57.683Z,102276.69
2022-10-13T06:54:25.120Z,102276.38
2022-10-13T06:56:52.304Z,102268.56
2022-10-13T06:59:19.568Z,102273.78
2022-10-13T07:01:47.621Z,102278.03
2022-10-13T07:04:16.031Z,102275.06
2022-10-13T07:06:43.318Z,102267.09
2022-10-13T07:09:10.618Z,102267.94
2022-10-13T07:11:38.778Z,102273.59
2022-10-13T07:14:06.072Z,102275.16
2022-10-13T07:16:33.315Z,102268.06
2022-10-13T07:19:02.090Z,102270.66
2022-10-13T07:21:30.639Z,102270.84
2022-10-13T07:23:58.282Z,102265.63
2022-10-13T07:26:25.519Z,102270.75
2022-10-13T07:28:52.973Z,102269.31
2022-10-13T07:31:20.917Z,102271.22
2022-10-13T07:33:49.202Z,102259.97
2022-10-13T07:36:18.011Z,102260.75
2022-10-13T07:38:45.578Z,102253.13
2022-10-13T07:41:13.497Z,102254.69
2022-10-13T07:43:40.702Z,102252.84
2022-10-13T07:46:08.385Z,102259.13
2022-10-13T07:48:36.025Z,102258.84
2022-10-13T07:51:04.574Z,102259.00
2022-10-13T07:53:31.887Z,102261.53
2022-10-13T07:56:02.656Z,102249.66
2022-10-13T07:58:30.031Z,102252.41
2022-10-13T08:01:00.735Z,102254.22
2022-10-13T08:03:28.979Z,102255.06
2022-10-13T08:05:58.398Z,102255.06
2022-10-13T08:08:25.780Z,102256.13
2022-10-13T08:13:23.924Z,102252.66
2022-10-13T08:15:51.337Z,102251.09
2022-10-13T08:18:18.580Z,102254.97
2022-10-13T08:20:46.166Z,102252.78
2022-10-13T08:23:13.578Z,102261.66
2022-10-13T08:25:49.215Z,102263.09
2022-10-13T08:28:16.643Z,102254.97
2022-10-13T08:30:44.188Z,102252.06
2022-10-13T08:33:11.835Z,102259.53
2022-10-13T08:35:39.539Z,102258.69
2022-10-13T08:38:07.681Z,102254.97
2022-10-13T08:40:35.313Z,102254.13
2022-10-13T08:43:05.909Z,102250.44
2022-10-13T08:45:42.486Z,102242.59
2022-10-13T08:48:17.028Z,102250.69
2022-10-13T08:50:46.676Z,102249.38
2022-10-13T08:53:23.448Z,102249.38
2022-10-13T08:55:59.422Z,102252.19
2022-10-13T08:58:28.608Z,102259.44
2022-10-13T09:01:10.877Z,102251.88
2022-10-13T09:03:49.224Z,102254.97
2022-10-13T09:06:16.490Z,102249.22
2022-10-13T09:08:54.390Z,102247.22
2022-10-13T09:11:21.780Z,102248.03
2022-10-13T09:13:49.155Z,102245.06
2022-10-13T09:16:16.408Z,102245.44
2022-10-13T09:18:43.588Z,102243.53
2022-10-13T09:21:18.345Z,102240.97
2022-10-13T09:23:45.848Z,102243.53
2022-10-13T09:26:21.520Z,102239.84
2022-10-13T09:28:49.471Z,102228.94
2022-10-13T09:31:17.156Z,102238.88
2022-10-13T09:33:45.648Z,102228.31
2022-10-13T09:36:14.423Z,102229.53
2022-10-13T09:38:44.074Z,102232.34
2022-10-13T09:41:11.322Z,102225.91
2022-10-13T09:43:41.498Z,102219.06
2022-10-13T09:46:32.131Z,102226.34
2022-10-13T09:49:04.222Z,102223.38
2022-10-13T09:51:42.937Z,102219.88
2022-10-13T09:54:27.590Z,102216.00
2022-10-13T09:57:01.380Z,102219.50
2022-10-13T09:59:33.374Z,102217.75
2022-10-13T10:02:03.930Z,102219.50
2022-10-13T10:04:38.508Z,102219.56
2022-10-13T10:07:15.809Z,102219.69
2022-10-13T10:09:48.059Z,102210.16
2022-10-13T10:12:25.469Z,102208.69
2022-10-13T10:14:55.570Z,102213.84
2022-10-13T10:17:43.987Z,102208.78
2022-10-13T10:20:29.901Z,102209.31
2022-10-13T10:23:05.895Z,102219.22
2022-10-13T10:25:39.168Z,102209.16
2022-10-13T10:28:06.431Z,102206.91
2022-10-13T10:30:37.157Z,102203.47
2022-10-13T10:33:11.218Z,102196.41
2022-10-13T10:35:44.283Z,102205.84
2022-10-13T10:38:20.980Z,102198.28
2022-10-13T10:41:06.842Z,102198.69
2022-10-13T10:43:55.562Z,102197.22
2022-10-13T10:46:43.031Z,102198.56
2022-10-13T10:49:17.212Z,102193.50
2022-10-13T10:51:45.063Z,102182.81
2022-10-13T10:54:18.037Z,102183.91
2022-10-13T10:56:52.715Z,102190.38
2022-10-13T10:59:22.990Z,102179.34
2022-10-13T11:02:01.717Z,102192.25
2022-10-13T11:04:35.955Z,102191.25
2022-10-13T11:07:04.214Z,102191.94
2022-10-13T11:09:43.363Z,102185.44
2022-10-13T11:12:20.281Z,102192.97
2022-10-13T11:14:53.965Z,102188.09
2022-10-13T11:17:31.049Z,102187.56
2022-10-13T11:19:58.652Z,102189.03
2022-10-13T11:22:27.100Z,102185.69
2022-10-13T11:24:55.972Z,102189.25
2022-10-13T11:27:27.783Z,102186.50
2022-10-13T11:29:58.865Z,102185.47
2022-10-13T11:32:26.435Z,102183.66
2022-10-13T11:34:57.830Z,102182.06
2022-10-13T11:37:30.384Z,102178.41
2022-10-13T11:40:13.625Z,102178.03
2022-10-13T11:42:59.450Z,102170.03
2022-10-13T11:45:38.405Z,102176.72
2022-10-13T11:50:39.704Z,102169.47
2022-10-13T11:53:12.413Z,102172.88
2022-10-13T11:55:53.022Z,102163.75
2022-10-13T11:58:20.342Z,102154.25
2022-10-13T12:01:07.177Z,102153.97
2022-10-13T12:03:39.249Z,102156.13
2022-10-13T12:06:20.665Z,102151.19
2022-10-13T12:08:49.890Z,102152.28
2022-10-13T12:11:25.597Z,102149.78
2022-10-13T12:13:53.102Z,102147.69
2022-10-13T12:16:21.058Z,102144.34
2022-10-13T12:18:50.588Z,102138.75
2022-10-13T12:21:20.263Z,102140.53
2022-10-13T12:23:48.111Z,102142.66
2022-10-13T12:26:16.716Z,102135.81
2022-10-13T12:28:52.252Z,102135.00
2022-10-13T12:31:24.184Z,102133.34
2022-10-13T12:33:52.889Z,102127.50
2022-10-13T12:36:21.843Z,102127.56
2022-10-13T12:38:50.814Z,102128.75
2022-10-13T12:41:19.955Z,102126.00
2022-10-13T12:43:47.621Z,102126.63
2022-10-13T12:46:34.988Z,102114.22
2022-10-13T12:49:12.414Z,102118.75
2022-10-13T12:51:40.212Z,102114.22
2022-10-13T12:54:08.652Z,102113.59
2022-10-13T12:56:36.017Z,102109.22
2022-10-13T12:59:03.868Z,102105.75
2022-10-13T13:01:32.601Z,102111.16
2022-10-13T13:04:16.305Z,102109.91
2022-10-13T13:07:00.086Z,102108.59
2022-10-13T13:09:29.141Z,102110.97
2022-10-13T13:12:08.842Z,102105.13
2022-10-13T13:14:43.195Z,102094.03
2022-10-13T13:17:10.512Z,102095.31
2022-10-13T13:19:37.706Z,102098.13
2022-10-13T13:22:05.918Z,102092.53
2022-10-13T13:24:39.809Z,102089.47
2022-10-13T13:27:16.001Z,102090.13
2022-10-13T13:29:43.798Z,102092.06
2022-10-13T13:32:15.592Z,102086.88
2022-10-13T13:34:43.548Z,102087.72
2022-10-13T13:37:17.296Z,102080.94
2022-10-13T13:39:45.691Z,102085.94
2022-10-13T13:42:14.079Z,102082.88
2022-10-13T13:44:43.775Z,102085.16
2022-10-13T13:47:18.730Z,102077.53
2022-10-13T13:49:48.861Z,102085.16
2022-10-13T13:52:18.115Z,102078.19
2022-10-13T13:54:45.439Z,102075.59
2022-10-13T13:57:13.245Z,102075.59
2022-10-13T13:59:40.751Z,102080.63
2022-10-13T14:02:13.112Z,102072.75
2022-10-13T14:04:40.698Z,102073.94
2022-10-13T14:07:08.015Z,102074.94
2022-10-13T14:09:35.488Z,102069.84
2022-10-13T14:12:02.703Z,102075.78
2022-10-13T14:14:31.387Z,102073.19
2022-10-13T14:16:59.506Z,102065.38
2022-10-13T14:19:26.875Z,102073.97
2022-10-13T14:21:54.127Z,102071.47
2022-10-13T14:24:21.399Z,102072.09
2022-10-13T14:26:48.653Z,102070.41
2022-10-13T14:29:17.042Z,102067.56
2022-10-13T14:31:44.299Z,102061.50
2022-10-13T14:34:11.884Z,102059.31
2022-10-13T14:36:40.685Z,102061.06
2022-10-13T14:39:08.149Z,102057.81
2022-10-13T14:41:35.402Z,102057.56
2022-10-13T14:44:02.634Z,102044.13
2022-10-13T14:46:29.884Z,102039.09
2022-10-13T14:48:58.939Z,102035.88
2022-10-13T14:51:27.139Z,102039.09
2022-10-13T14:53:54.672Z,102035.22
2022-10-13T14:56:23.414Z,102027.19
2022-10-13T14:58:53.507Z,102028.94
2022-10-13T15:01:20.818Z,102030.88
2022-10-13T15:03:48.305Z,102032.16
2022-10-13T15:06:16.808Z,102026.09
2022-10-13T15:08:44.258Z,102023.06
2022-10-13T15:11:11.810Z,102025.44
2022-10-13T15:13:39.119Z,102033.91
2022-10-13T15:16:07.111Z,102028.22
2022-10-13T15:18:36.161Z,102021.06
2022-10-13T15:21:03.487Z,102028.69
2022-10-13T15:23:30.831Z,102021.72
2022-10-13T15:26:00.106Z,102022.81
2022-10-13T15:28:47.079Z,102011.72
2022-10-13T15:31:15.862Z,102016.31
2022-10-13T15:33:44.861Z,102013.28
2022-10-13T15:36:12.156Z,102017.84
2022-10-13T15:38:40.138Z,102019.13
2022-10-13T15:41:07.983Z,102014.59
2022-10-13T15:43:35.200Z,102017.00
2022-10-13T15:46:03.815Z,102015.03
2022-10-13T15:48:31.004Z,102014.00
2022-10-13T15:50:58.429Z,102012.84
2022-10-13T15:53:26.318Z,102011.75
2022-10-13T15:55:53.558Z,102015.06
2022-10-13T15:58:21.072Z,102010.38
2022-10-13T16:00:48.426Z,102005.84
2022-10-13T16:03:16.968Z,102004.41
2022-10-13T16:05:45.352Z,102006.00
2022-10-13T16:08:12.737Z,102006.13
2022-10-13T16:10:41.399Z,101995.38
2022-10-13T16:13:09.668Z,101998.97
2022-10-13T16:15:36.963Z,102000.91
2022-10-13T16:18:04.362Z,101989.63
2022-10-13T16:20:37.775Z,101992.41
2022-10-13T16:23:05.551Z,101989.19
2022-10-13T16:25:32.743Z,101991.81
2022-10-13T16:28:00.862Z,101986.81
2022-10-13T16:30:30.477Z,101985.91
2022-10-13T16:32:58.243Z,101976.19
2022-10-13T16:35:25.600Z,101976.72
2022-10-13T16:37:52.819Z,101977.47
2022-10-13T16:40:20.220Z,101977.28
2022-10-13T16:42:48.097Z,101977.47
2022-10-13T16:45:15.396Z,101974.44
2022-10-13T16:47:42.749Z,101969.25
2022-10-13T16:50:10.924Z,101969.91
2022-10-13T16:52:38.485Z,101968.38
2022-10-13T16:55:06.125Z,101957.19
2022-10-13T16:57:33.392Z,101961.19
2022-10-13T17:00:00.643Z,101957.31
2022-10-13T17:02:30.621Z,101959.03
2022-10-13T17:04:58.171Z,101947.94
2022-10-13T17:07:25.359Z,101954.47
2022-10-13T17:09:52.746Z,101954.34
2022-10-13T17:12:20.040Z,101955.38
2022-10-13T17:14:47.797Z,101951.00
2022-10-13T17:17:14.968Z,101949.94
2022-10-13T17:19:42.292Z,101947.31
2022-10-13T17:22:09.450Z,101946.53
2022-10-13T17:24:36.801Z,101946.41
2022-10-13T17:27:04.103Z,101945.78
2022-10-13T17:29:31.593Z,101939.28
2022-10-13T17:31:58.859Z,101944.72
2022-10-13T17:34:26.261Z,101944.72
2022-10-13T17:36:53.459Z,101939.72
2022-10-13T17:39:20.753Z,101945.38
2022-10-13T17:41:47.973Z,101942.00
2022-10-13T17:44:20.370Z,101933.72
2022-10-13T17:46:49.442Z,101942.53
2022-10-13T17:49:16.945Z,101939.72
2022-10-13T17:51:44.231Z,101938.53
2022-10-13T17:54:15.975Z,101943.19
2022-10-13T17:56:44.153Z,101941.78
2022-10-13T17:59:11.507Z,101940.59
2022-10-13T18:01:38.921Z,101937.75
2022-10-13T18:04:07.676Z,101937.88
2022-10-13T18:06:40.033Z,101943.63
2022-10-13T18:09:08.792Z,101937.75
2022-10-13T18:11:36.284Z,101939.72
2022-10-13T18:14:03.737Z,101938.19
2022-10-13T18:16:31.232Z,101940.34
2022-10-13T18:18:58.515Z,101941.25
2022-10-13T18:21:29.495Z,101929.31
2022-10-13T18:23:58.141Z,101931.03
2022-10-13T18:26:26.066Z,101934.94
2022-10-13T18:28:53.490Z,101933.22
2022-10-13T18:31:22.072Z,101926.25
2022-10-13T18:33:51.837Z,101928.66
2022-10-13T18:36:24.307Z,101922.34
2022-10-13T18:38:52.334Z,101925.50
2022-10-13T18:41:20.292Z,101919.97
2022-10-13T18:43:47.599Z,101926.06
2022-10-13T18:46:16.968Z,101921.91
2022-10-13T18:48:45.203Z,101929.09
2022-10-13T18:51:14.382Z,101922.56
2022-10-13T18:53:42.872Z,101917.78
2022-10-13T18:56:15.896Z,101923.63
2022-10-13T18:58:43.259Z,101914.97
2022-10-13T19:01:12.106Z,101919.34
2022-10-13T19:03:40.142Z,101925.16
2022-10-13T19:06:08.441Z,101919.53
2022-10-13T19:08:36.669Z,101924.09
2022-10-13T19:11:20.390Z,101914.44
2022-10-13T19:13:48.190Z,101921.94
2022-10-13T19:16:16.755Z,101918.66
2022-10-13T19:18:44.381Z,101911.72
2022-10-13T19:21:11.982Z,101907.59
2022-10-13T19:23:39.926Z,101906.94
2022-10-13T19:26:17.212Z,101906.75
2022-10-13T19:28:44.805Z,101908.47
2022-10-13T19:31:16.646Z,101900.75
2022-10-13T19:33:45.021Z,101902.94
2022-10-13T19:36:19.895Z,101893.47
2022-10-13T19:38:50.272Z,101895.63
2022-10-13T19:41:17.691Z,101898.22
2022-10-13T19:43:45.109Z,101896.97
2022-10-13T19:46:12.675Z,101900.09
2022-10-13T19:48:40.093Z,101904.09
2022-10-13T19:51:09.006Z,101901.97
2022-10-13T19:53:36.430Z,101909.84
2022-10-13T19:56:03.791Z,101897.16
2022-10-13T19:58:31.938Z,101900.41
2022-10-13T20:01:04.102Z,101902.19
2022-10-13T20:03:31.879Z,101902.88
2022-10-13T20:05:59.079Z,101898.03
2022-10-13T20:08:26.491Z,101893.41
2022-10-13T20:10:54.281Z,101901.06
2022-10-13T20:13:21.585Z,101891.50
2022-10-13T20:15:51.150Z,101888.59
2022-10-13T20:18:20.782Z,101899.44
2022-10-13T20:20:48.007Z,101888.47
2022-10-13T20:23:15.197Z,101888.28
2022-10-13T20:25:42.972Z,101894.75
2022-10-13T20:28:10.152Z,101889.25
2022-10-13T20:30:39.165Z,101892.81
2022-10-13T20:33:06.403Z,101884.22
2022-10-13T20:35:33.739Z,101888.34
2022-10-13T20:38:00.921Z,101886.09
2022-10-13T20:40:28.174Z,101888.03
2022-10-13T20:42:55.550Z,101880.69
2022-10-13T20:45:22.921Z,101887.19
2022-10-13T20:47:50.239Z,101877.25
2022-10-13T20:50:23.572Z,101861.78
2022-10-13T20:52:50.895Z,101887.63
2022-10-13T20:55:18.087Z,101867.53
2022-10-13T20:57:45.820Z,101879.38
2022-10-13T21:00:13.254Z,101871.59
2022-10-13T21:02:40.622Z,101868.53
2022-10-13T21:05:08.051Z,101871.16
2022-10-13T21:07:35.639Z,101876.13
2022-10-13T21:10:02.872Z,101867.69
2022-10-13T21:12:31.699Z,101861.16
2022-10-13T21:14:58.920Z,101865.69
2022-10-13T21:17:26.140Z,101866.47
2022-10-13T21:19:53.321Z,101859.25
2022-10-13T21:22:20.743Z,101862.00
2022-10-13T21:24:47.964Z,101865.25
2022-10-13T21:27:15.276Z,101861.03
2022-10-13T21:29:42.557Z,101858.53
2022-10-13T21:32:10.999Z,101849.88
2022-10-13T21:34:40.253Z,101857.88
2022-10-13T21:37:07.814Z,101859.19
2022-10-13T21:39:35.054Z,101851.38
2022-10-13T21:42:02.437Z,101852.69
2022-10-13T21:44:31.026Z,101848.91
2022-10-13T21:46:58.363Z,101849.31
2022-10-13T21:49:25.557Z,101845.78
2022-10-13T21:51:53.053Z,101840.53
2022-10-13T21:54:20.247Z,101843.03
2022-10-13T21:56:47.643Z,101842.91
2022-10-13T21:59:14.914Z,101839.69
2022-10-13T22:01:43.269Z,101834.03
2022-10-13T22:04:13.879Z,101835.97
2022-10-13T22:06:41.543Z,101829.72
2022-10-13T22:09:09.210Z,101831.84
2022-10-13T22:11:37.665Z,101827.09
2022-10-13T22:14:10.701Z,101829.06
2022-10-13T22:16:39.624Z,101817.97
2022-10-13T22:19:07.135Z,101825.03
2022-10-13T22:21:38.358Z,101818.41
2022-10-13T22:24:06.846Z,101823.84
2022-10-13T22:26:35.187Z,101830.56
2022-10-13T22:29:03.960Z,101828.63
2022-10-13T22:31:32.754Z,101820.34
2022-10-13T22:34:05.983Z,101821.66
2022-10-13T22:36:33.318Z,101829.50
2022-10-13T22:39:02.734Z,101825.34
2022-10-13T22:41:31.167Z,101828.19
2022-10-13T22:43:58.892Z,101822.28
2022-10-13T22:46:27.423Z,101823.84
2022-10-13T22:48:55.761Z,101824.94
2022-10-13T22:51:24.535Z,101833.84
2022-10-13T22:53:52.228Z,101834.03
2022-10-13T22:56:20.690Z,101828.44
2022-10-13T22:58:55.262Z,101832.31
2022-10-13T23:01:22.702Z,101826.31
2022-10-13T23:03:50.900Z,101826.88
2022-10-13T23:06:19.400Z,101827.31
2022-10-13T23:08:46.821Z,101828.81
2022-10-13T23:11:14.168Z,101829.47
2022-10-13T23:13:41.646Z,101829.06
2022-10-13T23:16:10.572Z,101828.44
2022-10-13T23:18:38.415Z,101830.38
2022-10-13T23:21:10.467Z,101820.69
2022-10-13T23:23:37.929Z,101821.91
2022-10-13T23:26:05.927Z,101821.00
2022-10-13T23:28:33.968Z,101816.38
2022-10-13T23:31:02.773Z,101813.00
2022-10-13T23:33:30.374Z,101820.78
2022-10-13T23:35:58.726Z,101816.69
2022-10-13T23:38:26.561Z,101812.97
2022-10-13T23:40:53.776Z,101816.59
2022-10-13T23:43:21.433Z,101803.25
2022-10-13T23:45:48.627Z,101808.69
2022-10-13T23:48:15.899Z,101806.28
2022-10-13T23:50:43.134Z,101797.38
2022-10-13T23:53:10.308Z,101795.84
2022-10-13T23:55:38.653Z,101802.16
2022-10-13T23:58:06.117Z,101791.31
